Time;durP1;ratioP1;P1;durP2;ratioP2;P2;SDS_P1;SDS_P2;PMS_P1;PMS_P2;Temp;Humidity;BMP_temperature;BMP_pressure;BME280_temperature;BME280_humidity;BME280_pressure;Samples;Min_cycle;Max_cycle;Signal;HPM_P1;HPM_P2
2023/08/08 00:02:08;;;;;;;3.30;2.37;;;15.00;1.00;;;;;;5057438;28;20487;-80
2023/08/08 00:04:35;;;;;;;4.47;2.47;;;15.00;1.00;;;;;;5044000;28;20449;-81
2023/08/08 00:07:02;;;;;;;4.97;2.27;;;15.00;1.00;;;;;;5067916;28;20470;-81
2023/08/08 00:09:29;;;;;;;4.03;2.20;;;14.90;1.00;;;;;;5065280;28;20528;-80
2023/08/08 00:11:57;;;;;;;3.17;2.30;;;14.90;1.00;;;;;;5060420;28;20479;-81
2023/08/08 00:14:23;;;;;;;4.20;2.20;;;14.90;1.00;;;;;;5062730;28;20561;-81
2023/08/08 00:16:52;;;;;;;4.40;2.50;;;14.80;1.00;;;;;;5061154;28;20585;-81
2023/08/08 00:19:19;;;;;;;3.93;2.10;;;14.80;1.00;;;;;;5059544;28;20844;-80
2023/08/08 00:21:48;;;;;;;4.17;2.30;;;14.80;1.00;;;;;;5063408;28;20490;-80
2023/08/08 00:24:15;;;;;;;5.30;2.60;;;14.80;1.00;;;;;;5066104;28;22100;-81
2023/08/08 00:26:42;;;;;;;3.33;2.50;;;14.70;1.00;;;;;;5063522;28;20551;-81
2023/08/08 00:29:09;;;;;;;3.60;2.60;;;14.70;1.00;;;;;;5060201;28;20560;-80
2023/08/08 00:31:36;;;;;;;5.67;2.50;;;14.70;1.00;;;;;;5064124;28;20459;-81
2023/08/08 00:34:04;;;;;;;7.07;3.13;;;14.70;1.00;;;;;;5063756;28;20479;-81
2023/08/08 00:36:31;;;;;;;3.97;2.83;;;14.60;1.00;;;;;;5062424;28;20486;-81
2023/08/08 00:38:58;;;;;;;2.90;2.13;;;14.60;1.00;;;;;;5042284;28;20455;-81
2023/08/08 00:41:26;;;;;;;5.43;2.43;;;14.50;1.00;;;;;;5052766;28;20883;-80
2023/08/08 00:43:53;;;;;;;4.30;2.33;;;14.50;1.00;;;;;;5058997;28;20434;-79
2023/08/08 00:46:38;;;;;;;3.53;2.10;;;14.50;1.00;;;;;;5064824;28;20453;-80
2023/08/08 00:49:06;;;;;;;3.80;2.43;;;14.50;1.00;;;;;;5064193;28;20486;-80
2023/08/08 00:51:33;;;;;;;4.67;2.60;;;14.40;1.00;;;;;;5064652;28;20507;-80
2023/08/08 00:54:01;;;;;;;5.03;2.47;;;14.40;1.00;;;;;;5039825;28;20438;-79
2023/08/08 00:56:28;;;;;;;3.53;1.80;;;14.40;1.00;;;;;;5056313;28;20464;-80
2023/08/08 00:58:55;;;;;;;4.07;2.37;;;14.30;1.00;;;;;;5061590;28;20975;-80
2023/08/08 01:01:22;;;;;;;4.77;2.20;;;14.30;1.00;;;;;;5044362;28;20557;-81
2023/08/08 01:03:49;;;;;;;4.37;2.67;;;14.40;1.00;;;;;;5102346;22;20542;-76
2023/08/08 01:06:26;;;;;;;4.40;2.83;;;14.30;1.00;;;;;;5061863;28;21053;-74
2023/08/08 01:08:58;;;;;;;3.30;2.10;;;14.30;1.00;;;;;;5061110;28;20464;-74
2023/08/08 01:11:26;;;;;;;6.27;2.67;;;14.30;1.00;;;;;;5064214;28;21030;-75
2023/08/08 01:13:57;;;;;;;4.87;2.40;;;14.30;1.00;;;;;;5060305;28;20548;-74
2023/08/08 01:16:26;;;;;;;4.97;2.10;;;14.30;1.00;;;;;;5063540;28;20465;-74
2023/08/08 01:18:53;;;;;;;6.23;2.23;;;14.30;1.00;;;;;;5061954;28;20553;-73
2023/08/08 01:21:24;;;;;;;4.57;2.37;;;14.20;1.00;;;;;;5065754;28;20493;-72
2023/08/08 01:23:57;;;;;;;4.73;2.50;;;14.20;1.00;;;;;;5067280;28;20560;-73
2023/08/08 01:26:25;;;;;;;3.63;2.27;;;14.20;1.00;;;;;;5068463;28;20450;-73
2023/08/08 01:28:55;;;;;;;3.33;2.10;;;14.10;1.00;;;;;;5065214;28;20461;-73
2023/08/08 01:31:22;;;;;;;2.67;1.80;;;14.10;1.00;;;;;;5063370;28;20469;-73
2023/08/08 01:33:49;;;;;;;4.43;2.47;;;14.10;1.00;;;;;;5063331;28;20611;-74
2023/08/08 01:36:29;;;;;;;5.47;2.13;;;14.10;1.00;;;;;;5066528;28;20536;-73
2023/08/08 01:39:04;;;;;;;4.13;2.17;;;14.00;1.00;;;;;;5064935;28;20572;-74
2023/08/08 01:41:34;;;;;;;5.00;2.37;;;14.00;1.00;;;;;;5065369;28;20459;-73
2023/08/08 01:44:02;;;;;;;2.90;2.00;;;14.00;1.00;;;;;;5067296;28;20484;-73
2023/08/08 01:46:30;;;;;;;3.43;1.83;;;14.00;1.00;;;;;;5067946;28;20449;-72
2023/08/08 01:48:59;;;;;;;2.23;1.83;;;13.90;1.00;;;;;;5065116;28;20538;-73
2023/08/08 01:51:27;;;;;;;3.40;1.80;;;13.90;1.00;;;;;;5063823;28;20872;-77
2023/08/08 01:53:54;;;;;;;4.47;2.07;;;13.90;1.00;;;;;;5063919;28;20489;-73
2023/08/08 01:56:21;;;;;;;2.47;1.77;;;13.90;1.00;;;;;;5067749;28;21293;-73
2023/08/08 01:58:49;;;;;;;2.67;2.03;;;13.90;1.00;;;;;;5067879;28;20464;-73
2023/08/08 02:01:16;;;;;;;6.00;2.27;;;13.90;1.00;;;;;;5068970;28;20466;-73
2023/08/08 02:03:43;;;;;;;2.30;1.70;;;14.00;1.00;;;;;;5066379;28;20547;-73
2023/08/08 02:06:10;;;;;;;2.27;2.07;;;14.00;1.00;;;;;;5067858;28;20519;-74
2023/08/08 02:08:37;;;;;;;4.63;2.40;;;14.00;1.00;;;;;;5064800;28;20488;-72
2023/08/08 02:11:04;;;;;;;2.30;2.10;;;14.10;1.00;;;;;;5065572;28;20534;-73
2023/08/08 02:13:31;;;;;;;3.03;2.47;;;14.10;1.00;;;;;;5068909;28;20524;-73
2023/08/08 02:15:59;;;;;;;2.60;1.87;;;14.10;1.00;;;;;;5063030;28;20544;-73
2023/08/08 02:18:26;;;;;;;4.50;2.00;;;14.10;1.00;;;;;;5067611;28;20460;-73
2023/08/08 02:20:53;;;;;;;1.87;1.40;;;14.00;1.00;;;;;;5063040;28;20841;-74
2023/08/08 02:23:22;;;;;;;2.07;1.70;;;14.00;1.00;;;;;;5067315;28;20596;-74
2023/08/08 02:25:49;;;;;;;4.10;1.90;;;14.00;1.00;;;;;;5064587;28;20885;-73
2023/08/08 02:28:15;;;;;;;4.80;2.13;;;14.00;1.00;;;;;;5068907;28;20467;-72
2023/08/08 02:30:43;;;;;;;2.83;2.00;;;13.90;1.00;;;;;;5064002;28;20514;-73
2023/08/08 02:33:11;;;;;;;2.40;2.20;;;14.00;1.00;;;;;;5064617;28;20523;-73
2023/08/08 02:35:38;;;;;;;3.40;1.93;;;14.00;1.00;;;;;;5064871;28;21009;-74
2023/08/08 02:38:05;;;;;;;2.43;1.83;;;14.00;1.00;;;;;;5066257;28;20968;-73
2023/08/08 02:40:33;;;;;;;2.53;2.33;;;14.00;1.00;;;;;;5063559;28;20458;-73
2023/08/08 02:43:00;;;;;;;2.53;1.80;;;14.00;1.00;;;;;;5066339;28;20484;-73
2023/08/08 02:45:27;;;;;;;2.87;2.07;;;14.00;1.00;;;;;;5066153;28;21223;-73
2023/08/08 02:47:54;;;;;;;3.80;2.40;;;14.00;1.00;;;;;;5067391;28;20641;-73
2023/08/08 02:50:22;;;;;;;3.80;2.40;;;14.00;1.00;;;;;;5064814;28;20509;-73
2023/08/08 02:52:50;;;;;;;2.90;2.27;;;13.90;1.00;;;;;;5063172;28;21099;-73
2023/08/08 02:55:17;;;;;;;4.10;2.67;;;13.90;1.00;;;;;;5066144;28;20454;-73
2023/08/08 02:57:44;;;;;;;2.20;2.00;;;13.80;1.00;;;;;;5063880;28;20512;-73
2023/08/08 03:00:12;;;;;;;2.40;1.77;;;13.80;1.00;;;;;;5068342;28;20466;-73
2023/08/08 03:02:39;;;;;;;4.37;2.30;;;13.80;1.00;;;;;;5063302;28;20443;-73
2023/08/08 03:05:07;;;;;;;3.07;2.47;;;13.70;1.00;;;;;;5064416;28;20460;-73
2023/08/08 03:07:35;;;;;;;4.23;2.27;;;13.70;1.00;;;;;;5066175;28;20625;-73
2023/08/08 03:10:02;;;;;;;3.57;2.00;;;13.70;1.00;;;;;;5063475;28;20632;-73
2023/08/08 03:12:29;;;;;;;3.93;2.73;;;13.70;1.00;;;;;;5066743;28;20482;-73
2023/08/08 03:14:56;;;;;;;3.03;2.60;;;13.70;1.00;;;;;;5066670;28;20457;-73
2023/08/08 03:17:23;;;;;;;3.43;2.63;;;13.70;1.00;;;;;;5061924;28;20459;-73
2023/08/08 03:19:50;;;;;;;2.47;2.10;;;13.70;1.00;;;;;;5065989;28;21985;-73
2023/08/08 03:22:17;;;;;;;3.33;2.30;;;13.60;1.00;;;;;;5065169;28;20552;-72
2023/08/08 03:24:45;;;;;;;3.80;2.80;;;13.70;1.00;;;;;;5066605;28;20472;-75
2023/08/08 03:27:12;;;;;;;4.40;2.43;;;13.70;1.00;;;;;;5058757;28;20536;-74
2023/08/08 03:29:39;;;;;;;4.77;3.07;;;13.60;1.00;;;;;;5068466;28;20577;-74
2023/08/08 03:32:07;;;;;;;4.10;2.80;;;13.70;1.00;;;;;;5066298;28;20480;-74
2023/08/08 03:34:34;;;;;;;3.67;2.40;;;13.70;1.00;;;;;;5060469;28;20460;-73
2023/08/08 03:37:01;;;;;;;2.70;2.47;;;13.70;1.00;;;;;;5063801;28;20469;-73
2023/08/08 03:39:28;;;;;;;3.33;2.43;;;13.70;1.00;;;;;;5067719;28;20499;-73
2023/08/08 03:41:56;;;;;;;5.53;3.10;;;13.60;1.00;;;;;;5064464;28;20522;-73
2023/08/08 03:44:23;;;;;;;3.17;2.43;;;13.60;1.00;;;;;;5062893;28;20466;-73
2023/08/08 03:46:50;;;;;;;5.07;2.80;;;13.60;1.00;;;;;;5063282;28;20453;-74
2023/08/08 03:49:17;;;;;;;5.53;2.67;;;13.60;1.00;;;;;;5063291;28;20466;-73
2023/08/08 03:51:44;;;;;;;4.37;2.13;;;13.60;1.00;;;;;;5066766;28;20516;-73
2023/08/08 03:54:11;;;;;;;4.73;2.20;;;13.70;1.00;;;;;;5065493;28;20557;-74
2023/08/08 03:56:38;;;;;;;2.33;2.10;;;13.70;1.00;;;;;;5066230;28;20992;-74
2023/08/08 03:59:07;;;;;;;3.87;2.60;;;13.80;1.00;;;;;;5063149;28;20448;-73
2023/08/08 04:01:35;;;;;;;2.40;2.20;;;13.80;1.00;;;;;;5048824;28;20485;-73
2023/08/08 04:04:02;;;;;;;4.80;3.13;;;13.90;1.00;;;;;;5060574;28;20867;-73
2023/08/08 04:06:29;;;;;;;6.83;2.70;;;13.90;1.00;;;;;;5064943;28;20630;-74
2023/08/08 04:08:56;;;;;;;3.60;2.60;;;13.90;1.00;;;;;;5063780;28;20921;-74
2023/08/08 04:11:23;;;;;;;3.53;2.23;;;13.90;1.00;;;;;;5061947;28;21727;-74
2023/08/08 04:13:50;;;;;;;3.77;2.43;;;14.00;1.00;;;;;;5059774;28;20562;-74
2023/08/08 04:16:19;;;;;;;3.90;3.03;;;14.00;1.00;;;;;;5063738;28;20454;-74
2023/08/08 04:18:45;;;;;;;3.53;2.37;;;14.10;1.00;;;;;;5063209;28;20536;-74
2023/08/08 04:21:12;;;;;;;5.53;2.30;;;14.10;1.00;;;;;;5062553;28;20462;-73
2023/08/08 04:23:39;;;;;;;3.43;2.60;;;14.20;1.00;;;;;;5063957;28;20560;-73
2023/08/08 04:26:06;;;;;;;4.20;2.40;;;14.20;1.00;;;;;;5061099;28;20543;-73
2023/08/08 04:28:33;;;;;;;5.83;3.03;;;14.20;1.00;;;;;;5063788;28;20458;-70
2023/08/08 04:31:00;;;;;;;3.47;2.80;;;14.30;1.00;;;;;;5058644;28;20485;-72
2023/08/08 04:33:32;;;;;;;5.27;2.33;;;14.30;1.00;;;;;;5063987;28;20493;-74
2023/08/08 04:35:59;;;;;;;3.90;2.80;;;14.30;1.00;;;;;;5063550;28;20465;-74
2023/08/08 04:38:26;;;;;;;4.13;2.73;;;14.20;1.00;;;;;;5062133;28;20477;-71
2023/08/08 04:40:53;;;;;;;4.70;2.37;;;14.20;1.00;;;;;;5062097;28;21023;-71
2023/08/08 04:43:20;;;;;;;3.93;2.27;;;14.20;1.00;;;;;;5065231;28;21705;-70
2023/08/08 04:45:47;;;;;;;4.80;2.70;;;14.20;1.00;;;;;;5066032;28;20534;-70
2023/08/08 04:48:13;;;;;;;4.33;2.27;;;14.20;1.00;;;;;;5065345;28;21560;-70
2023/08/08 04:50:42;;;;;;;4.40;2.40;;;14.10;1.00;;;;;;5062365;28;20559;-72
2023/08/08 04:53:09;;;;;;;4.03;2.80;;;14.10;1.00;;;;;;5063033;28;20552;-71
2023/08/08 04:55:35;;;;;;;3.77;2.50;;;14.20;1.00;;;;;;5066510;28;20956;-71
2023/08/08 04:58:02;;;;;;;2.93;2.27;;;14.20;1.00;;;;;;5064533;28;20538;-70
2023/08/08 05:00:29;;;;;;;3.27;2.10;;;14.20;1.00;;;;;;5067305;28;20528;-73
2023/08/08 05:02:56;;;;;;;2.80;2.50;;;14.20;1.00;;;;;;5061232;28;20457;-71
2023/08/08 05:05:23;;;;;;;4.23;2.57;;;14.20;1.00;;;;;;5064536;28;20495;-71
2023/08/08 05:07:51;;;;;;;3.70;3.17;;;14.30;1.00;;;;;;5064387;28;20454;-71
2023/08/08 05:10:19;;;;;;;4.43;2.73;;;14.30;1.00;;;;;;5064254;28;20476;-73
2023/08/08 05:12:45;;;;;;;4.00;2.80;;;14.30;1.00;;;;;;5064580;28;20451;-75
2023/08/08 05:15:12;;;;;;;4.67;2.70;;;14.30;1.00;;;;;;5066276;28;20511;-74
2023/08/08 05:17:40;;;;;;;4.00;2.93;;;14.30;1.00;;;;;;5066501;28;20423;-73
2023/08/08 05:20:09;;;;;;;5.47;2.60;;;14.30;1.00;;;;;;5069759;28;20470;-72
2023/08/08 05:22:36;;;;;;;3.43;2.60;;;14.40;1.00;;;;;;5069708;28;21201;-72
2023/08/08 05:25:06;;;;;;;3.90;2.47;;;14.40;1.00;;;;;;5068874;28;20418;-72
2023/08/08 05:27:32;;;;;;;2.33;2.13;;;14.40;1.00;;;;;;5068943;28;20538;-73
2023/08/08 05:30:00;;;;;;;2.90;2.40;;;14.40;1.00;;;;;;5066591;28;20975;-73
2023/08/08 05:32:26;;;;;;;3.50;2.70;;;14.40;1.00;;;;;;5069625;28;20469;-73
2023/08/08 05:34:55;;;;;;;2.97;2.20;;;14.40;1.00;;;;;;5063469;28;20482;-73
2023/08/08 05:37:22;;;;;;;3.27;2.80;;;14.50;1.00;;;;;;5068014;28;20902;-72
2023/08/08 05:39:49;;;;;;;4.30;2.93;;;14.60;1.00;;;;;;5065905;28;20519;-72
2023/08/08 05:42:17;;;;;;;4.50;2.97;;;14.70;1.00;;;;;;5069541;28;20462;-74
2023/08/08 05:44:44;;;;;;;3.53;3.17;;;14.80;1.00;;;;;;5067244;28;20465;-73
2023/08/08 05:47:13;;;;;;;2.73;2.30;;;15.00;1.00;;;;;;5089061;28;20594;-72
2023/08/08 05:49:42;;;;;;;3.00;2.70;;;15.20;1.00;;;;;;5077408;28;20591;-73
2023/08/08 05:52:10;;;;;;;3.70;2.30;;;15.40;1.00;;;;;;5064824;28;20492;-73
2023/08/08 05:54:37;;;;;;;3.80;2.33;;;15.60;1.00;;;;;;5066777;28;20517;-72
2023/08/08 05:57:04;;;;;;;3.37;3.00;;;15.80;1.00;;;;;;5068634;28;20610;-73
2023/08/08 05:59:32;;;;;;;9.00;4.23;;;15.80;1.00;;;;;;5072846;28;20905;-73
2023/08/08 06:01:59;;;;;;;3.07;2.40;;;15.80;1.00;;;;;;5066269;28;20446;-72
2023/08/08 06:04:26;;;;;;;3.70;3.10;;;15.80;1.00;;;;;;5067594;28;20583;-73
2023/08/08 06:06:54;;;;;;;4.80;2.63;;;15.70;1.00;;;;;;5064768;28;21132;-73
2023/08/08 06:09:22;;;;;;;3.10;2.10;;;15.60;1.00;;;;;;5066761;28;20475;-74
2023/08/08 06:11:49;;;;;;;4.37;2.80;;;15.70;1.00;;;;;;5064611;28;20470;-73
2023/08/08 06:14:17;;;;;;;4.40;3.00;;;15.80;1.00;;;;;;5067902;28;20455;-73
2023/08/08 06:16:46;;;;;;;3.70;2.20;;;15.80;1.00;;;;;;5077254;28;20461;-73
2023/08/08 06:19:14;;;;;;;4.40;2.83;;;15.90;1.00;;;;;;5080577;28;20465;-72
2023/08/08 06:21:41;;;;;;;3.90;2.20;;;16.00;1.00;;;;;;5088386;28;20504;-73
2023/08/08 06:24:08;;;;;;;4.00;2.67;;;16.00;1.00;;;;;;5087322;28;20503;-72
2023/08/08 06:26:35;;;;;;;3.10;2.53;;;16.00;1.00;;;;;;5082411;28;20467;-74
2023/08/08 06:29:03;;;;;;;3.07;2.60;;;15.90;1.00;;;;;;5077039;28;20474;-72
2023/08/08 06:31:30;;;;;;;2.87;2.63;;;16.00;1.00;;;;;;5069480;28;20478;-72
2023/08/08 06:33:59;;;;;;;3.90;2.70;;;16.10;1.00;;;;;;5084166;28;21003;-72
2023/08/08 06:36:26;;;;;;;3.50;3.17;;;16.30;1.00;;;;;;5085402;28;20462;-74
2023/08/08 06:38:53;;;;;;;4.70;2.70;;;16.40;1.00;;;;;;5087137;28;20484;-72
2023/08/08 06:41:20;;;;;;;2.50;2.30;;;16.50;1.00;;;;;;5092115;28;20490;-73
2023/08/08 06:43:47;;;;;;;4.00;2.80;;;16.50;1.00;;;;;;5086201;28;20465;-72
2023/08/08 06:46:14;;;;;;;3.37;2.70;;;16.40;1.00;;;;;;5090371;28;20478;-73
2023/08/08 06:48:45;;;;;;;3.83;3.10;;;16.50;1.00;;;;;;5083135;28;20466;-73
2023/08/08 06:51:14;;;;;;;3.43;2.10;;;16.50;1.00;;;;;;5083597;28;20445;-72
2023/08/08 06:53:40;;;;;;;3.53;3.23;;;16.60;1.00;;;;;;5091111;28;20981;-72
2023/08/08 06:56:07;;;;;;;2.73;2.40;;;16.60;1.00;;;;;;5091824;28;20466;-72
2023/08/08 06:58:34;;;;;;;2.60;2.40;;;16.50;1.00;;;;;;5091605;28;20477;-72
2023/08/08 07:01:01;;;;;;;2.70;2.50;;;16.50;1.00;;;;;;5085766;28;20517;-76
2023/08/08 07:03:28;;;;;;;4.30;2.60;;;16.50;1.00;;;;;;5075035;28;20490;-74
2023/08/08 07:05:55;;;;;;;4.13;2.80;;;16.50;1.00;;;;;;5087649;28;20441;-76
2023/08/08 07:08:23;;;;;;;6.90;2.67;;;16.70;1.00;;;;;;5092469;28;20543;-75
2023/08/08 07:11:34;;;;;;;3.60;2.90;;;16.60;1.00;;;;;;5093389;28;20905;-77
2023/08/08 07:14:01;;;;;;;3.90;2.70;;;16.60;1.00;;;;;;5085281;28;21351;-76
2023/08/08 07:16:28;;;;;;;4.60;2.53;;;16.80;1.00;;;;;;5085655;28;20890;-74
2023/08/08 07:18:55;;;;;;;2.60;2.33;;;16.90;1.00;;;;;;5088873;28;20565;-74
2023/08/08 07:21:22;;;;;;;3.70;3.33;;;17.00;1.00;;;;;;5080520;28;20455;-73
2023/08/08 07:23:51;;;;;;;3.60;2.73;;;17.10;1.00;;;;;;5082693;28;20957;-73
2023/08/08 07:26:18;;;;;;;3.97;2.50;;;17.30;1.00;;;;;;5079730;28;20530;-73
2023/08/08 07:28:44;;;;;;;3.73;2.70;;;17.30;1.00;;;;;;5084866;28;20506;-74
2023/08/08 07:31:12;;;;;;;4.33;2.63;;;17.30;1.00;;;;;;5082553;28;20459;-73
2023/08/08 07:33:38;;;;;;;2.57;2.37;;;17.40;1.00;;;;;;5085525;28;20494;-74
2023/08/08 07:36:06;;;;;;;2.80;2.60;;;17.40;1.00;;;;;;5090168;28;22156;-73
2023/08/08 07:38:33;;;;;;;3.23;2.77;;;17.50;1.00;;;;;;5091669;28;20473;-72
2023/08/08 07:41:01;;;;;;;2.80;2.60;;;17.60;1.00;;;;;;5090722;28;20447;-72
2023/08/08 07:43:28;;;;;;;4.30;2.97;;;17.60;1.00;;;;;;5092887;28;20499;-71
2023/08/08 07:45:55;;;;;;;4.23;2.17;;;17.60;1.00;;;;;;5089124;28;20454;-72
2023/08/08 07:48:22;;;;;;;2.80;2.20;;;17.70;1.00;;;;;;5085472;28;20536;-72
2023/08/08 07:50:49;;;;;;;5.00;3.23;;;17.90;1.00;;;;;;5081630;28;20467;-73
2023/08/08 07:53:16;;;;;;;3.60;3.00;;;18.10;1.00;;;;;;5084343;28;20978;-73
2023/08/08 07:55:43;;;;;;;4.67;2.20;;;18.20;1.00;;;;;;5084068;28;20565;-74
2023/08/08 07:58:11;;;;;;;2.60;2.40;;;18.10;1.00;;;;;;5084473;28;21771;-73
2023/08/08 08:00:39;;;;;;;6.90;3.23;;;18.00;1.00;;;;;;5089718;28;20455;-72
2023/08/08 08:03:06;;;;;;;3.60;2.60;;;17.90;1.00;;;;;;5086187;28;21028;-72
2023/08/08 08:05:34;;;;;;;3.63;2.67;;;17.90;1.00;;;;;;5091318;28;20908;-71
2023/08/08 08:08:01;;;;;;;4.03;2.87;;;17.80;1.00;;;;;;5088416;28;21231;-71
2023/08/08 08:10:29;;;;;;;3.77;2.50;;;17.70;1.00;;;;;;5091050;28;20509;-72
2023/08/08 08:12:58;;;;;;;2.57;2.37;;;17.60;1.00;;;;;;5090194;28;20552;-72
2023/08/08 08:15:26;;;;;;;2.87;2.57;;;17.70;1.00;;;;;;5096138;28;20455;-73
2023/08/08 08:17:53;;;;;;;3.40;2.70;;;17.80;1.00;;;;;;5093704;28;20560;-72
2023/08/08 08:20:20;;;;;;;4.50;2.97;;;17.90;1.00;;;;;;5092191;28;21028;-72
2023/08/08 08:22:47;;;;;;;6.43;2.63;;;18.10;1.00;;;;;;5092773;28;20984;-72
2023/08/08 08:25:15;;;;;;;3.33;2.37;;;18.20;1.00;;;;;;5086927;28;20549;-71
2023/08/08 08:27:42;;;;;;;3.63;2.50;;;18.50;1.00;;;;;;5070943;28;20543;-70
2023/08/08 08:30:10;;;;;;;3.10;2.77;;;18.30;1.00;;;;;;5071292;28;21271;-76
2023/08/08 08:32:42;;;;;;;4.10;3.00;;;18.40;1.00;;;;;;5082158;28;20464;-75
2023/08/08 08:35:12;;;;;;;3.87;2.47;;;18.60;1.00;;;;;;5087997;28;20468;-74
2023/08/08 08:37:39;;;;;;;3.73;2.30;;;18.70;1.00;;;;;;5093198;28;20484;-72
2023/08/08 08:40:07;;;;;;;3.50;2.67;;;19.00;1.00;;;;;;5091526;28;20463;-73
2023/08/08 08:42:34;;;;;;;2.70;2.13;;;19.20;1.00;;;;;;5089558;28;20548;-72
2023/08/08 08:45:04;;;;;;;2.60;2.40;;;19.30;1.00;;;;;;5088932;28;21634;-71
2023/08/08 08:47:32;;;;;;;2.70;2.40;;;19.40;1.00;;;;;;5089681;28;20481;-72
2023/08/08 08:50:03;;;;;;;3.77;2.37;;;19.40;1.00;;;;;;5087829;28;20489;-74
2023/08/08 08:52:30;;;;;;;3.77;1.90;;;19.40;1.00;;;;;;5088005;28;20468;-75
2023/08/08 08:54:58;;;;;;;3.77;2.13;;;19.40;1.00;;;;;;5090753;28;20886;-73
2023/08/08 08:57:25;;;;;;;4.23;2.50;;;19.30;1.00;;;;;;5092217;28;20572;-74
2023/08/08 08:59:53;;;;;;;2.53;2.33;;;19.40;1.00;;;;;;5090632;28;22167;-72
2023/08/08 09:02:20;;;;;;;4.03;2.40;;;19.50;1.00;;;;;;5088357;28;20489;-73
2023/08/08 09:04:48;;;;;;;3.20;2.10;;;19.60;1.00;;;;;;5085519;28;20418;-74
2023/08/08 09:07:20;;;;;;;2.30;2.10;;;19.60;1.00;;;;;;5091361;28;20477;-73
2023/08/08 09:09:47;;;;;;;2.53;2.33;;;19.50;1.00;;;;;;5084611;28;20451;-71
2023/08/08 09:12:14;;;;;;;2.50;2.30;;;19.60;1.00;;;;;;5087393;28;20626;-72
2023/08/08 09:14:42;;;;;;;3.33;2.93;;;19.60;1.00;;;;;;5089980;28;20495;-74
2023/08/08 09:17:13;;;;;;;2.80;2.50;;;19.70;1.00;;;;;;5087422;28;20470;-73
2023/08/08 09:19:43;;;;;;;3.07;2.53;;;19.90;1.00;;;;;;5085415;28;20448;-73
2023/08/08 09:22:10;;;;;;;2.83;2.30;;;20.00;1.00;;;;;;5079828;28;20915;-73
2023/08/08 09:24:41;;;;;;;3.30;2.00;;;20.20;1.00;;;;;;5065101;28;20455;-74
2023/08/08 09:27:08;;;;;;;2.60;2.33;;;20.30;1.00;;;;;;5065283;28;20563;-73
2023/08/08 09:29:37;;;;;;;5.13;2.90;;;20.40;1.00;;;;;;5068188;28;20566;-73
2023/08/08 09:32:05;;;;;;;2.53;2.23;;;20.70;1.00;;;;;;5061747;28;20538;-73
2023/08/08 09:34:32;;;;;;;3.33;2.33;;;20.90;1.00;;;;;;5072851;28;20465;-73
2023/08/08 09:36:59;;;;;;;2.73;2.53;;;21.30;1.00;;;;;;5075436;28;20587;-73
2023/08/08 09:39:26;;;;;;;3.07;2.37;;;22.30;1.00;;;;;;5073074;28;20462;-74
2023/08/08 09:41:57;;;;;;;2.57;2.37;;;23.00;1.00;;;;;;5073957;28;20462;-73
2023/08/08 09:44:26;;;;;;;7.00;5.10;;;22.30;1.00;;;;;;5076888;28;20466;-74
2023/08/08 09:46:53;;;;;;;2.90;2.33;;;22.60;1.00;;;;;;5075619;28;20455;-73
2023/08/08 09:49:23;;;;;;;3.73;2.47;;;23.00;1.00;;;;;;5073455;28;20987;-75
2023/08/08 09:51:51;;;;;;;5.20;4.60;;;23.50;1.00;;;;;;5073428;28;20498;-74
2023/08/08 09:54:18;;;;;;;3.43;2.63;;;24.30;1.00;;;;;;5077858;28;20466;-72
2023/08/08 09:56:45;;;;;;;4.20;2.10;;;24.60;1.00;;;;;;5077848;28;20468;-72
2023/08/08 09:59:14;;;;;;;3.27;2.30;;;24.40;1.00;;;;;;5079329;28;20982;-73
2023/08/08 10:01:42;;;;;;;2.30;2.10;;;24.70;1.00;;;;;;5075101;28;20448;-73
2023/08/08 10:04:12;;;;;;;3.00;1.80;;;24.70;1.00;;;;;;5075342;28;20451;-72
2023/08/08 10:06:40;;;;;;;3.40;2.23;;;23.80;1.00;;;;;;5075029;28;20511;-73
2023/08/08 10:09:08;;;;;;;2.43;2.23;;;23.10;1.00;;;;;;5073748;28;20590;-73
2023/08/08 10:11:36;;;;;;;2.87;2.50;;;21.90;1.00;;;;;;5070715;28;20982;-72
2023/08/08 10:14:04;;;;;;;3.40;2.17;;;20.80;1.00;;;;;;5067854;28;20463;-73
2023/08/08 10:16:34;;;;;;;3.50;2.70;;;19.40;1.00;;;;;;5071623;28;20465;-71
2023/08/08 10:19:03;;;;;;;6.47;2.70;;;18.30;1.00;;;;;;5071097;28;20530;-72
2023/08/08 10:21:34;;;;;;;4.17;2.97;;;17.60;1.00;;;;;;5069271;28;20627;-72
2023/08/08 10:24:06;;;;;;;4.27;2.80;;;17.40;1.00;;;;;;5070281;28;20527;-72
2023/08/08 10:26:34;;;;;;;3.73;3.00;;;17.50;1.00;;;;;;5067664;28;20922;-71
2023/08/08 10:29:02;;;;;;;4.00;3.33;;;17.60;1.00;;;;;;5069594;28;20456;-73
2023/08/08 10:31:36;;;;;;;4.77;3.70;;;17.50;1.00;;;;;;5063886;28;20473;-73
2023/08/08 10:34:04;;;;;;;4.43;3.33;;;17.50;1.00;;;;;;5068245;28;20466;-72
2023/08/08 10:36:45;;;;;;;4.23;2.90;;;17.50;1.00;;;;;;5066112;28;20511;-72
2023/08/08 10:39:17;;;;;;;6.77;4.50;;;18.50;1.00;;;;;;5070404;28;20946;-73
2023/08/08 10:41:49;;;;;;;6.33;2.50;;;20.90;1.00;;;;;;5067635;28;20456;-71
2023/08/08 10:44:23;;;;;;;2.70;2.50;;;23.60;1.00;;;;;;5069475;28;20949;-75
2023/08/08 10:46:53;;;;;;;3.20;2.33;;;25.70;1.00;;;;;;5068949;28;20623;-74
2023/08/08 10:49:20;;;;;;;2.53;1.87;;;26.20;1.00;;;;;;5072377;28;20545;-74
2023/08/08 10:51:51;;;;;;;3.47;2.00;;;27.10;1.00;;;;;;5071107;28;20485;-72
2023/08/08 10:54:22;;;;;;;3.13;2.10;;;25.90;1.00;;;;;;5068165;28;20468;-74
2023/08/08 10:56:51;;;;;;;2.67;2.47;;;24.20;1.00;;;;;;5084852;28;20831;-72
2023/08/08 10:59:20;;;;;;;2.50;2.10;;;23.20;1.00;;;;;;5069733;28;20446;-73
2023/08/08 11:01:49;;;;;;;5.30;2.80;;;22.30;1.00;;;;;;5071236;28;21100;-74
2023/08/08 11:04:20;;;;;;;4.87;2.93;;;21.20;1.00;;;;;;5069664;28;20506;-73
2023/08/08 11:06:49;;;;;;;3.43;3.10;;;19.90;1.00;;;;;;5093875;28;20455;-73
2023/08/08 11:09:19;;;;;;;2.57;2.37;;;19.30;1.00;;;;;;5083611;28;20439;-73
2023/08/08 11:11:46;;;;;;;2.57;2.30;;;19.10;1.00;;;;;;5087183;28;20464;-75
2023/08/08 11:14:15;;;;;;;3.63;2.33;;;18.70;1.00;;;;;;5082255;28;20449;-73
2023/08/08 11:16:43;;;;;;;2.50;2.23;;;18.70;1.00;;;;;;5068910;28;20935;-75
2023/08/08 11:19:11;;;;;;;2.40;2.10;;;20.00;1.00;;;;;;5073842;28;20516;-73
2023/08/08 11:21:43;;;;;;;2.30;2.10;;;22.50;1.00;;;;;;5074312;28;20456;-74
2023/08/08 11:24:11;;;;;;;3.30;2.27;;;24.90;1.00;;;;;;5074737;28;20454;-75
2023/08/08 11:26:40;;;;;;;2.70;2.07;;;26.70;1.00;;;;;;5076024;28;20514;-73
2023/08/08 11:29:07;;;;;;;2.80;2.30;;;27.40;1.00;;;;;;5075835;28;20484;-75
2023/08/08 11:31:36;;;;;;;2.87;2.30;;;27.40;1.00;;;;;;5075632;28;20473;-75
2023/08/08 11:34:04;;;;;;;2.13;1.80;;;26.30;1.00;;;;;;5074982;28;20455;-74
2023/08/08 11:36:32;;;;;;;2.47;1.90;;;24.10;1.00;;;;;;5074748;28;20549;-73
2023/08/08 11:39:05;;;;;;;2.50;1.60;;;21.90;1.00;;;;;;5089796;28;20499;-76
2023/08/08 11:41:32;;;;;;;1.60;1.20;;;20.60;1.00;;;;;;5094143;28;20465;-75
2023/08/08 11:44:00;;;;;;;1.57;1.43;;;19.80;1.00;;;;;;5090052;28;20469;-74
2023/08/08 11:46:27;;;;;;;2.07;1.87;;;19.30;1.00;;;;;;5094644;28;20505;-73
2023/08/08 11:48:54;;;;;;;1.93;1.60;;;19.20;1.00;;;;;;5093447;28;20450;-72
2023/08/08 11:51:21;;;;;;;2.50;1.83;;;19.00;1.00;;;;;;5095535;28;20456;-72
2023/08/08 11:53:52;;;;;;;2.47;1.73;;;18.90;1.00;;;;;;5094699;28;20507;-75
2023/08/08 11:56:22;;;;;;;2.20;2.00;;;18.60;1.00;;;;;;5094135;28;20472;-73
2023/08/08 11:58:51;;;;;;;2.47;1.80;;;18.50;1.00;;;;;;5089811;28;20553;-73
2023/08/08 12:01:21;;;;;;;3.80;3.20;;;20.00;1.00;;;;;;5092154;28;20461;-71
2023/08/08 12:03:48;;;;;;;3.13;1.70;;;22.90;1.00;;;;;;5093504;28;20582;-73
2023/08/08 12:06:15;;;;;;;3.60;2.37;;;25.30;1.00;;;;;;5085825;28;20471;-69
2023/08/08 12:08:44;;;;;;;1.83;1.73;;;26.60;1.00;;;;;;5072796;28;20549;-72
2023/08/08 12:11:12;;;;;;;2.03;1.83;;;27.90;1.00;;;;;;5075309;28;20986;-70
2023/08/08 12:13:42;;;;;;;2.43;2.20;;;28.40;1.00;;;;;;5089625;28;20915;-72
2023/08/08 12:16:10;;;;;;;2.17;1.93;;;29.40;1.00;;;;;;5090925;28;20940;-71
2023/08/08 12:18:38;;;;;;;2.60;2.37;;;30.20;1.00;;;;;;5088985;28;20458;-71
2023/08/08 12:21:07;;;;;;;2.67;2.40;;;30.80;1.00;;;;;;5076007;28;20427;-72
2023/08/08 12:23:35;;;;;;;2.20;2.10;;;31.60;1.00;;;;;;5078722;28;20563;-72
2023/08/08 12:26:04;;;;;;;4.17;2.50;;;32.30;1.00;;;;;;5092082;28;20557;-73
2023/08/08 12:28:32;;;;;;;4.77;3.40;;;33.20;1.00;;;;;;5090079;28;20486;-71
2023/08/08 12:31:00;;;;;;;4.20;2.73;;;33.50;1.00;;;;;;5090150;28;20486;-70
2023/08/08 12:33:27;;;;;;;2.53;2.33;;;34.20;1.00;;;;;;5089765;28;20475;-71
2023/08/08 12:35:55;;;;;;;2.30;2.10;;;34.10;1.00;;;;;;5092911;28;20918;-73
2023/08/08 12:38:21;;;;;;;2.80;2.23;;;34.00;1.00;;;;;;5088565;28;20455;-74
2023/08/08 12:40:49;;;;;;;2.70;2.50;;;32.70;1.00;;;;;;5090783;28;20462;-73
2023/08/08 12:43:17;;;;;;;4.97;2.63;;;30.50;1.00;;;;;;5089410;28;20495;-73
2023/08/08 12:45:44;;;;;;;2.43;2.17;;;28.30;1.00;;;;;;5086744;28;20456;-73
2023/08/08 12:48:13;;;;;;;2.80;2.10;;;26.00;1.00;;;;;;5092086;28;20454;-72
2023/08/08 12:50:41;;;;;;;2.43;2.20;;;24.30;1.00;;;;;;5087824;28;20477;-70
2023/08/08 12:53:08;;;;;;;3.10;2.20;;;23.30;1.00;;;;;;5089013;28;20467;-73
2023/08/08 12:55:35;;;;;;;2.40;2.20;;;23.20;1.00;;;;;;5089543;28;20529;-72
2023/08/08 12:58:03;;;;;;;2.00;1.80;;;23.10;1.00;;;;;;5092188;28;20493;-71
2023/08/08 13:00:30;;;;;;;2.30;2.10;;;24.50;1.00;;;;;;5086512;28;20553;-74
2023/08/08 13:02:57;;;;;;;3.60;2.23;;;26.30;1.00;;;;;;5082296;28;21053;-71